sensor_id;sensor_type;location;lat;lon;timestamp;pressure;altitude;pressure_sealevel;temperature;humidity
11936;BME280;6027;48.576;9.180;2023-04-01T00:01:07;95598.25;;;7.34;100.00
11936;BME280;6027;48.576;9.180;2023-04-01T00:03:33;95606.13;;;7.34;100.00
11936;BME280;6027;48.576;9.180;2023-04-01T00:06:00;95597.47;;;7.40;100.00
11936;BME280;6027;48.576;9.180;2023-04-01T00:08:26;95594.47;;;7.43;100.00
11936;BME280;6027;48.576;9.180;2023-04-01T00:10:52;95603.97;;;7.44;100.00
11936;BME280;6027;48.576;9.180;2023-04-01T00:13:17;95600.97;;;7.47;100.00
11936;BME280;6027;48.576;9.180;2023-04-01T00:15:43;95591.66;;;7.51;100.00
11936;BME280;6027;48.576;9.180;2023-04-01T00:18:09;95598.53;;;7.46;100.00
11936;BME280;6027;48.576;9.180;2023-04-01T00:20:35;95588.44;;;7.49;100.00
11936;BME280;6027;48.576;9.180;2023-04-01T00:23:00;95593.69;;;7.49;100.00
11936;BME280;6027;48.576;9.180;2023-04-01T00:25:26;95586.75;;;7.42;100.00
11936;BME280;6027;48.576;9.180;2023-04-01T00:27:51;95592.22;;;7.40;100.00
11936;BME280;6027;48.576;9.180;2023-04-01T00:30:17;95585.38;;;7.46;100.00
11936;BME280;6027;48.576;9.180;2023-04-01T00:32:43;95576.66;;;7.45;100.00
11936;BME280;6027;48.576;9.180;2023-04-01T00:35:09;95583.50;;;7.40;100.00
11936;BME280;6027;48.576;9.180;2023-04-01T00:37:36;95585.56;;;7.44;100.00
11936;BME280;6027;48.576;9.180;2023-04-01T00:40:03;95587.00;;;7.47;100.00
11936;BME280;6027;48.576;9.180;2023-04-01T00:42:30;95582.09;;;7.44;100.00
11936;BME280;6027;48.576;9.180;2023-04-01T00:44:56;95583.94;;;7.43;100.00
11936;BME280;6027;48.576;9.180;2023-04-01T00:47:22;95585.78;;;7.49;100.00
11936;BME280;6027;48.576;9.180;2023-04-01T00:49:51;95581.09;;;7.45;100.00
11936;BME280;6027;48.576;9.180;2023-04-01T00:52:19;95591.81;;;7.43;100.00
11936;BME280;6027;48.576;9.180;2023-04-01T00:54:48;95587.38;;;7.44;100.00
11936;BME280;6027;48.576;9.180;2023-04-01T00:57:29;95585.94;;;7.41;100.00
11936;BME280;6027;48.576;9.180;2023-04-01T00:59:56;95585.16;;;7.47;100.00
11936;BME280;6027;48.576;9.180;2023-04-01T01:02:22;95578.03;;;7.41;100.00
11936;BME280;6027;48.576;9.180;2023-04-01T01:04:48;95586.56;;;7.43;100.00
11936;BME280;6027;48.576;9.180;2023-04-01T01:07:50;95579.44;;;7.37;100.00
11936;BME280;6027;48.576;9.180;2023-04-01T01:10:39;95587.19;;;7.45;100.00
11936;BME280;6027;48.576;9.180;2023-04-01T01:13:29;95583.13;;;7.43;100.00
11936;BME280;6027;48.576;9.180;2023-04-01T01:16:12;95587.94;;;7.39;100.00
11936;BME280;6027;48.576;9.180;2023-04-01T01:18:52;95583.50;;;7.40;100.00
11936;BME280;6027;48.576;9.180;2023-04-01T01:24:30;95581.69;;;7.40;100.00
11936;BME280;6027;48.576;9.180;2023-04-01T01:27:11;95568.91;;;7.37;100.00
11936;BME280;6027;48.576;9.180;2023-04-01T01:29:43;95583.50;;;7.40;100.00
11936;BME280;6027;48.576;9.180;2023-04-01T01:32:30;95582.28;;;7.42;100.00
11936;BME280;6027;48.576;9.180;2023-04-01T01:37:43;95588.81;;;7.46;100.00
11936;BME280;6027;48.576;9.180;2023-04-01T01:40:11;95582.09;;;7.44;100.00
11936;BME280;6027;48.576;9.180;2023-04-01T01:42:40;95587.56;;;7.42;100.00
11936;BME280;6027;48.576;9.180;2023-04-01T01:45:08;95583.50;;;7.40;100.00
11936;BME280;6027;48.576;9.180;2023-04-01T01:47:35;95583.69;;;7.38;100.00
11936;BME280;6027;48.576;9.180;2023-04-01T01:50:02;95590.34;;;7.34;100.00
11936;BME280;6027;48.576;9.180;2023-04-01T01:52:29;95589.34;;;7.35;100.00
11936;BME280;6027;48.576;9.180;2023-04-01T01:54:56;95593.38;;;7.31;100.00
11936;BME280;6027;48.576;9.180;2023-04-01T01:57:26;95593.16;;;7.33;100.00
11936;BME280;6027;48.576;9.180;2023-04-01T01:59:57;95594.97;;;7.32;100.00
11936;BME280;6027;48.576;9.180;2023-04-01T02:02:24;95600.69;;;7.36;100.00
11936;BME280;6027;48.576;9.180;2023-04-01T02:04:51;95595.59;;;7.34;100.00
11936;BME280;6027;48.576;9.180;2023-04-01T02:07:28;95597.63;;;7.32;100.00
11936;BME280;6027;48.576;9.180;2023-04-01T02:09:56;95590.31;;;7.27;100.00
11936;BME280;6027;48.576;9.180;2023-04-01T02:12:23;95586.25;;;7.25;100.00
11936;BME280;6027;48.576;9.180;2023-04-01T02:15:00;95585.69;;;7.30;100.00
11936;BME280;6027;48.576;9.180;2023-04-01T02:17:30;95589.63;;;7.19;100.00
11936;BME280;6027;48.576;9.180;2023-04-01T02:20:18;95595.53;;;7.21;100.00
11936;BME280;6027;48.576;9.180;2023-04-01T02:25:15;95592.28;;;7.19;100.00
11936;BME280;6027;48.576;9.180;2023-04-01T02:27:44;95598.41;;;7.26;100.00
11936;BME280;6027;48.576;9.180;2023-04-01T02:30:12;95600.03;;;7.27;100.00
11936;BME280;6027;48.576;9.180;2023-04-01T02:32:39;95597.72;;;7.17;100.00
11936;BME280;6027;48.576;9.180;2023-04-01T02:35:07;95593.91;;;7.20;100.00
11936;BME280;6027;48.576;9.180;2023-04-01T02:37:34;95597.69;;;7.11;100.00
11936;BME280;6027;48.576;9.180;2023-04-01T02:40:04;95596.06;;;7.10;100.00
11936;BME280;6027;48.576;9.180;2023-04-01T02:42:32;95603.56;;;7.13;100.00
11936;BME280;6027;48.576;9.180;2023-04-01T02:44:57;95605.78;;;7.09;100.00
11936;BME280;6027;48.576;9.180;2023-04-01T02:47:23;95606.81;;;7.15;100.00
11936;BME280;6027;48.576;9.180;2023-04-01T02:49:48;95597.91;;;7.16;100.00
11936;BME280;6027;48.576;9.180;2023-04-01T02:52:13;95607.63;;;7.15;100.00
11936;BME280;6027;48.576;9.180;2023-04-01T02:54:39;95606.81;;;7.15;100.00
11936;BME280;6027;48.576;9.180;2023-04-01T02:57:05;95597.47;;;7.12;100.00
11936;BME280;6027;48.576;9.180;2023-04-01T02:59:30;95589.38;;;7.07;100.00
11936;BME280;6027;48.576;9.180;2023-04-01T03:01:56;95594.19;;;7.04;100.00
11936;BME280;6027;48.576;9.180;2023-04-01T03:04:21;95589.88;;;6.96;100.00
11936;BME280;6027;48.576;9.180;2023-04-01T03:06:47;95586.88;;;6.99;100.00
11936;BME280;6027;48.576;9.180;2023-04-01T03:09:12;95588.69;;;6.99;100.00
11936;BME280;6027;48.576;9.180;2023-04-01T03:11:37;95588.44;;;6.93;100.00
11936;BME280;6027;48.576;9.180;2023-04-01T03:14:03;95595.72;;;6.91;100.00
11936;BME280;6027;48.576;9.180;2023-04-01T03:16:28;95586.34;;;6.82;100.00
11936;BME280;6027;48.576;9.180;2023-04-01T03:18:54;95593.59;;;6.80;100.00
11936;BME280;6027;48.576;9.180;2023-04-01T03:21:24;95598.25;;;6.78;100.00
11936;BME280;6027;48.576;9.180;2023-04-01T03:23:50;95601.06;;;6.77;100.00
11936;BME280;6027;48.576;9.180;2023-04-01T03:26:15;95600.88;;;6.78;100.00
11936;BME280;6027;48.576;9.180;2023-04-01T03:28:41;95599.25;;;6.77;100.00
11936;BME280;6027;48.576;9.180;2023-04-01T03:31:07;95599.84;;;6.73;100.00
11936;BME280;6027;48.576;9.180;2023-04-01T03:33:32;95601.22;;;6.69;100.00
11936;BME280;6027;48.576;9.180;2023-04-01T03:35:58;95599.41;;;6.69;100.00
11936;BME280;6027;48.576;9.180;2023-04-01T03:38:23;95602.03;;;6.69;100.00
11936;BME280;6027;48.576;9.180;2023-04-01T03:40:49;95602.66;;;6.71;100.00
11936;BME280;6027;48.576;9.180;2023-04-01T03:43:14;95589.44;;;6.65;100.00
11936;BME280;6027;48.576;9.180;2023-04-01T03:45:49;95603.78;;;6.62;100.00
11936;BME280;6027;48.576;9.180;2023-04-01T03:48:15;95594.44;;;6.59;100.00
11936;BME280;6027;48.576;9.180;2023-04-01T03:50:40;95594.19;;;6.54;100.00
11936;BME280;6027;48.576;9.180;2023-04-01T03:53:06;95602.22;;;6.46;100.00
11936;BME280;6027;48.576;9.180;2023-04-01T03:55:32;95598.41;;;6.49;100.00
11936;BME280;6027;48.576;9.180;2023-04-01T03:57:57;95597.41;;;6.50;100.00
11936;BME280;6027;48.576;9.180;2023-04-01T04:00:23;95599.22;;;6.49;100.00
11936;BME280;6027;48.576;9.180;2023-04-01T04:02:49;95586.25;;;6.48;100.00
11936;BME280;6027;48.576;9.180;2023-04-01T04:05:14;95586.06;;;6.49;100.00
11936;BME280;6027;48.576;9.180;2023-04-01T04:07:40;95587.75;;;6.57;100.00
11936;BME280;6027;48.576;9.180;2023-04-01T04:10:06;95584.28;;;6.56;100.00
11936;BME280;6027;48.576;9.180;2023-04-01T04:12:31;95575.56;;;6.49;100.00
11936;BME280;6027;48.576;9.180;2023-04-01T04:14:57;95573.09;;;6.48;100.00
11936;BME280;6027;48.576;9.180;2023-04-01T04:17:22;95568.78;;;6.40;100.00
11936;BME280;6027;48.576;9.180;2023-04-01T04:19:48;95567.34;;;6.38;100.00
11936;BME280;6027;48.576;9.180;2023-04-01T04:22:13;95570.16;;;6.36;100.00
11936;BME280;6027;48.576;9.180;2023-04-01T04:24:39;95562.06;;;6.38;100.00
11936;BME280;6027;48.576;9.180;2023-04-01T04:27:04;95565.34;;;6.40;100.00
11936;BME280;6027;48.576;9.180;2023-04-01T04:29:30;95556.81;;;6.38;100.00
11936;BME280;6027;48.576;9.180;2023-04-01T04:31:56;95555.97;;;6.31;100.00
11936;BME280;6027;48.576;9.180;2023-04-01T04:34:21;95557.44;;;6.18;100.00
11936;BME280;6027;48.576;9.180;2023-04-01T04:36:48;95563.66;;;6.32;100.00
11936;BME280;6027;48.576;9.180;2023-04-01T04:39:14;95561.66;;;6.34;100.00
11936;BME280;6027;48.576;9.180;2023-04-01T04:41:40;95569.16;;;6.37;100.00
11936;BME280;6027;48.576;9.180;2023-04-01T04:44:05;95560.03;;;6.33;100.00
11936;BME280;6027;48.576;9.180;2023-04-01T04:46:31;95566.72;;;6.36;100.00
11936;BME280;6027;48.576;9.180;2023-04-01T04:48:56;95560.44;;;6.37;100.00
11936;BME280;6027;48.576;9.180;2023-04-01T04:51:22;95567.84;;;6.48;100.00
11936;BME280;6027;48.576;9.180;2023-04-01T04:53:48;95567.88;;;6.54;100.00
11936;BME280;6027;48.576;9.180;2023-04-01T04:56:20;95576.84;;;6.60;100.00
11936;BME280;6027;48.576;9.180;2023-04-01T04:58:47;95575.00;;;6.54;100.00
11936;BME280;6027;48.576;9.180;2023-04-01T05:01:14;95568.78;;;6.62;100.00
11936;BME280;6027;48.576;9.180;2023-04-01T05:03:39;95587.00;;;6.63;100.00
11936;BME280;6027;48.576;9.180;2023-04-01T05:06:07;95582.78;;;6.69;100.00
11936;BME280;6027;48.576;9.180;2023-04-01T05:08:32;95577.09;;;6.65;100.00
11936;BME280;6027;48.576;9.180;2023-04-01T05:10:59;95576.91;;;6.67;100.00
11936;BME280;6027;48.576;9.180;2023-04-01T05:13:25;95580.59;;;6.72;100.00
11936;BME280;6027;48.576;9.180;2023-04-01T05:15:50;95569.28;;;6.72;100.00
11936;BME280;6027;48.576;9.180;2023-04-01T05:18:16;95576.56;;;6.76;100.00
11936;BME280;6027;48.576;9.180;2023-04-01T05:20:50;95573.72;;;6.71;100.00
11936;BME280;6027;48.576;9.180;2023-04-01T05:23:16;95564.22;;;6.77;100.00
11936;BME280;6027;48.576;9.180;2023-04-01T05:25:42;95567.69;;;6.77;100.00
11936;BME280;6027;48.576;9.180;2023-04-01T05:28:08;95565.25;;;6.76;100.00
11936;BME280;6027;48.576;9.180;2023-04-01T05:30:33;95557.97;;;6.78;100.00
11936;BME280;6027;48.576;9.180;2023-04-01T05:32:59;95552.34;;;6.81;100.00
11936;BME280;6027;48.576;9.180;2023-04-01T05:35:25;95540.44;;;6.85;100.00
11936;BME280;6027;48.576;9.180;2023-04-01T05:37:50;95548.31;;;6.85;100.00
11936;BME280;6027;48.576;9.180;2023-04-01T05:40:16;95552.78;;;6.84;100.00
11936;BME280;6027;48.576;9.180;2023-04-01T05:42:41;95550.56;;;6.88;100.00
11936;BME280;6027;48.576;9.180;2023-04-01T05:45:07;95556.66;;;6.88;100.00
11936;BME280;6027;48.576;9.180;2023-04-01T05:47:33;95547.75;;;6.89;100.00
11936;BME280;6027;48.576;9.180;2023-04-01T05:49:59;95544.50;;;6.87;100.00
11936;BME280;6027;48.576;9.180;2023-04-01T05:52:24;95548.78;;;6.95;100.00
11936;BME280;6027;48.576;9.180;2023-04-01T05:54:50;95536.44;;;6.96;100.00
11936;BME280;6027;48.576;9.180;2023-04-01T05:59:43;95545.78;;;6.98;100.00
11936;BME280;6027;48.576;9.180;2023-04-01T06:02:10;95539.69;;;6.98;100.00
11936;BME280;6027;48.576;9.180;2023-04-01T06:04:40;95546.22;;;7.02;100.00
11936;BME280;6027;48.576;9.180;2023-04-01T06:07:13;95548.69;;;7.10;100.00
11936;BME280;6027;48.576;9.180;2023-04-01T06:09:39;95537.38;;;7.16;100.00
11936;BME280;6027;48.576;9.180;2023-04-01T06:12:12;95538.00;;;7.18;100.00
11936;BME280;6027;48.576;9.180;2023-04-01T06:20:26;95522.25;;;7.24;100.00
11936;BME280;6027;48.576;9.180;2023-04-01T06:34:20;95516.28;;;7.44;100.00
11936;BME280;6027;48.576;9.180;2023-04-01T06:48:25;95525.47;;;7.61;100.00
11936;BME280;6027;48.576;9.180;2023-04-01T06:55:46;95505.06;;;7.76;100.00
11936;BME280;6027;48.576;9.180;2023-04-01T06:58:35;95512.94;;;7.70;100.00
11936;BME280;6027;48.576;9.180;2023-04-01T07:01:28;95518.41;;;7.75;100.00
11936;BME280;6027;48.576;9.180;2023-04-01T07:04:14;95515.81;;;7.81;100.00
11936;BME280;6027;48.576;9.180;2023-04-01T07:06:54;95508.50;;;7.77;100.00
11936;BME280;6027;48.576;9.180;2023-04-01T07:09:28;95503.47;;;7.82;100.00
11936;BME280;6027;48.576;9.180;2023-04-01T07:12:00;95524.13;;;7.85;100.00
11936;BME280;6027;48.576;9.180;2023-04-01T07:14:34;95510.56;;;7.88;100.00
11936;BME280;6027;48.576;9.180;2023-04-01T07:17:17;95518.06;;;7.91;100.00
11936;BME280;6027;48.576;9.180;2023-04-01T07:20:05;95517.66;;;7.94;100.00
11936;BME280;6027;48.576;9.180;2023-04-01T07:22:45;95514.03;;;7.95;100.00
11936;BME280;6027;48.576;9.180;2023-04-01T07:25:17;95515.06;;;8.01;100.00
11936;BME280;6027;48.576;9.180;2023-04-01T07:27:43;95516.28;;;8.05;100.00
11936;BME280;6027;48.576;9.180;2023-04-01T07:32:49;95514.84;;;8.09;100.00
11936;BME280;6027;48.576;9.180;2023-04-01T07:35:46;95514.66;;;8.10;100.00
11936;BME280;6027;48.576;9.180;2023-04-01T07:41:09;95531.09;;;8.12;100.00
11936;BME280;6027;48.576;9.180;2023-04-01T07:48:58;95535.75;;;8.17;100.00
11936;BME280;6027;48.576;9.180;2023-04-01T07:51:48;95532.13;;;8.18;100.00
11936;BME280;6027;48.576;9.180;2023-04-01T07:54:25;95530.72;;;8.22;100.00
11936;BME280;6027;48.576;9.180;2023-04-01T08:05:25;95552.06;;;8.34;100.00
11936;BME280;6027;48.576;9.180;2023-04-01T08:10:51;95550.97;;;8.28;100.00
11936;BME280;6027;48.576;9.180;2023-04-01T08:16:17;95557.88;;;8.22;100.00
11936;BME280;6027;48.576;9.180;2023-04-01T08:19:09;95547.34;;;8.22;100.00
11936;BME280;6027;48.576;9.180;2023-04-01T08:21:51;95553.41;;;8.16;100.00
11936;BME280;6027;48.576;9.180;2023-04-01T08:24:25;95554.22;;;8.17;100.00
11936;BME280;6027;48.576;9.180;2023-04-01T08:26:59;95564.38;;;8.20;100.00
11936;BME280;6027;48.576;9.180;2023-04-01T08:29:38;95566.38;;;8.11;100.00
11936;BME280;6027;48.576;9.180;2023-04-01T08:32:14;95568.00;;;8.12;100.00
11936;BME280;6027;48.576;9.180;2023-04-01T08:34:46;95564.34;;;8.13;100.00
11936;BME280;6027;48.576;9.180;2023-04-01T08:37:20;95564.94;;;8.09;100.00
11936;BME280;6027;48.576;9.180;2023-04-01T08:39:54;95562.31;;;8.15;100.00
11936;BME280;6027;48.576;9.180;2023-04-01T08:42:52;95566.38;;;8.11;100.00
11936;BME280;6027;48.576;9.180;2023-04-01T08:45:31;95566.56;;;8.10;100.00
11936;BME280;6027;48.576;9.180;2023-04-01T09:24:52;95566.59;;;8.29;100.00
11936;BME280;6027;48.576;9.180;2023-04-01T09:40:17;95585.75;;;8.45;100.00
11936;BME280;6027;48.576;9.180;2023-04-01T09:48:56;95603.31;;;8.24;100.00
11936;BME280;6027;48.576;9.180;2023-04-01T10:22:49;95603.88;;;8.07;100.00
11936;BME280;6027;48.576;9.180;2023-04-01T10:27:59;95602.66;;;8.03;100.00
11936;BME280;6027;48.576;9.180;2023-04-01T10:33:41;95607.50;;;7.99;100.00
11936;BME280;6027;48.576;9.180;2023-04-01T10:53:49;95618.72;;;8.27;100.00
11936;BME280;6027;48.576;9.180;2023-04-01T11:15:18;95611.75;;;8.61;100.00
11936;BME280;6027;48.576;9.180;2023-04-01T11:18:21;95609.72;;;8.63;100.00
11936;BME280;6027;48.576;9.180;2023-04-01T11:26:44;95623.34;;;8.86;100.00
11936;BME280;6027;48.576;9.180;2023-04-01T11:35:32;95630.44;;;8.86;100.00
11936;BME280;6027;48.576;9.180;2023-04-01T11:40:59;95640.81;;;8.81;100.00
11936;BME280;6027;48.576;9.180;2023-04-01T11:43:43;95638.75;;;8.76;100.00
11936;BME280;6027;48.576;9.180;2023-04-01T11:46:39;95637.75;;;8.77;100.00
11936;BME280;6027;48.576;9.180;2023-04-01T12:20:28;95645.69;;;9.04;100.00
11936;BME280;6027;48.576;9.180;2023-04-01T12:40:17;95651.78;;;9.24;100.00
11936;BME280;6027;48.576;9.180;2023-04-01T13:04:30;95663.16;;;9.24;100.00
11936;BME280;6027;48.576;9.180;2023-04-01T13:10:00;95676.16;;;9.39;100.00
11936;BME280;6027;48.576;9.180;2023-04-01T13:25:27;95673.09;;;9.55;100.00
11936;BME280;6027;48.576;9.180;2023-04-01T13:28:09;95667.22;;;9.53;100.00
11936;BME280;6027;48.576;9.180;2023-04-01T13:35:53;95671.69;;;9.53;100.00
11936;BME280;6027;48.576;9.180;2023-04-01T13:38:45;95670.47;;;9.55;100.00
11936;BME280;6027;48.576;9.180;2023-04-01T13:44:00;95679.00;;;9.51;100.00
11936;BME280;6027;48.576;9.180;2023-04-01T13:51:56;95685.28;;;9.50;100.00
11936;BME280;6027;48.576;9.180;2023-04-01T13:57:33;95679.19;;;9.49;100.00
11936;BME280;6027;48.576;9.180;2023-04-01T14:00:32;95683.25;;;9.65;100.00
11936;BME280;6027;48.576;9.180;2023-04-01T14:03:25;95687.72;;;9.64;100.00
11936;BME280;6027;48.576;9.180;2023-04-01T14:12:01;95696.47;;;9.72;100.00
11936;BME280;6027;48.576;9.180;2023-04-01T14:23:27;95698.28;;;9.64;100.00
11936;BME280;6027;48.576;9.180;2023-04-01T14:26:35;95702.56;;;9.65;100.00
11936;BME280;6027;48.576;9.180;2023-04-01T14:29:15;95704.81;;;9.55;100.00
11936;BME280;6027;48.576;9.180;2023-04-01T14:35:09;95700.94;;;9.58;100.00
11936;BME280;6027;48.576;9.180;2023-04-01T14:49:23;95707.03;;;9.45;100.00
11936;BME280;6027;48.576;9.180;2023-04-01T14:52:04;95707.44;;;9.49;100.00
11936;BME280;6027;48.576;9.180;2023-04-01T14:54:32;95707.44;;;9.49;100.00
11936;BME280;6027;48.576;9.180;2023-04-01T14:57:13;95705.81;;;9.54;100.00
11936;BME280;6027;48.576;9.180;2023-04-01T14:59:41;95712.34;;;9.58;100.00
11936;BME280;6027;48.576;9.180;2023-04-01T15:04:54;95692.00;;;9.46;100.00
11936;BME280;6027;48.576;9.180;2023-04-01T15:13:14;95718.41;;;9.65;100.00
11936;BME280;6027;48.576;9.180;2023-04-01T15:18:44;95732.25;;;9.54;100.00
11936;BME280;6027;48.576;9.180;2023-04-01T15:23:52;95724.13;;;9.56;100.00
11936;BME280;6027;48.576;9.180;2023-04-01T15:32:53;95734.69;;;9.56;100.00
11936;BME280;6027;48.576;9.180;2023-04-01T15:37:59;95733.66;;;9.44;100.00
11936;BME280;6027;48.576;9.180;2023-04-01T15:54:06;95745.84;;;9.45;100.00
11936;BME280;6027;48.576;9.180;2023-04-01T16:00:29;95747.50;;;9.39;100.00
11936;BME280;6027;48.576;9.180;2023-04-01T16:03:15;95746.03;;;9.43;100.00
11936;BME280;6027;48.576;9.180;2023-04-01T16:22:53;95761.69;;;9.45;100.00
11936;BME280;6027;48.576;9.180;2023-04-01T16:28:24;95752.78;;;9.39;100.00
11936;BME280;6027;48.576;9.180;2023-04-01T16:31:03;95754.78;;;9.44;100.00
11936;BME280;6027;48.576;9.180;2023-04-01T16:36:26;95757.44;;;9.44;100.00
11936;BME280;6027;48.576;9.180;2023-04-01T16:39:27;95756.00;;;9.48;100.00
11936;BME280;6027;48.576;9.180;2023-04-01T16:49:53;95762.72;;;9.37;100.00
11936;BME280;6027;48.576;9.180;2023-04-01T16:52:36;95763.53;;;9.38;100.00
11936;BME280;6027;48.576;9.180;2023-04-01T16:55:19;95770.03;;;9.35;100.00
11936;BME280;6027;48.576;9.180;2023-04-01T16:57:59;95773.47;;;9.29;100.00
11936;BME280;6027;48.576;9.180;2023-04-01T17:00:28;95773.28;;;9.37;100.00
11936;BME280;6027;48.576;9.180;2023-04-01T17:05:44;95775.72;;;9.32;100.00
11936;BME280;6027;48.576;9.180;2023-04-01T17:11:24;95772.44;;;9.30;100.00
11936;BME280;6027;48.576;9.180;2023-04-01T17:14:18;95773.28;;;9.30;100.00
11936;BME280;6027;48.576;9.180;2023-04-01T17:17:08;95762.91;;;9.29;100.00
11936;BME280;6027;48.576;9.180;2023-04-01T17:22:59;95771.22;;;9.26;100.00
11936;BME280;6027;48.576;9.180;2023-04-01T17:44:38;95790.31;;;9.15;100.00
11936;BME280;6027;48.576;9.180;2023-04-01T17:52:32;95811.84;;;9.18;100.00
11936;BME280;6027;48.576;9.180;2023-04-01T17:57:52;95819.19;;;9.23;100.00
11936;BME280;6027;48.576;9.180;2023-04-01T18:00:36;95808.19;;;9.19;100.00
11936;BME280;6027;48.576;9.180;2023-04-01T18:06:19;95820.59;;;9.25;100.00
11936;BME280;6027;48.576;9.180;2023-04-01T18:17:18;95823.66;;;9.22;100.00
11936;BME280;6027;48.576;9.180;2023-04-01T18:19:50;95824.84;;;9.26;100.00
11936;BME280;6027;48.576;9.180;2023-04-01T18:22:28;95836.22;;;9.14;100.00
11936;BME280;6027;48.576;9.180;2023-04-01T18:27:43;95851.28;;;9.20;100.00
11936;BME280;6027;48.576;9.180;2023-04-01T18:32:58;95860.94;;;9.06;100.00
11936;BME280;6027;48.576;9.180;2023-04-01T18:38:15;95878.94;;;8.89;100.00
11936;BME280;6027;48.576;9.180;2023-04-01T18:41:12;95892.53;;;8.80;100.00
11936;BME280;6027;48.576;9.180;2023-04-01T18:46:36;95904.59;;;8.61;100.00
11936;BME280;6027;48.576;9.180;2023-04-01T18:49:21;95895.91;;;8.39;100.00
11936;BME280;6027;48.576;9.180;2023-04-01T18:51:57;95897.84;;;8.30;100.00
11936;BME280;6027;48.576;9.180;2023-04-01T18:54:31;95912.03;;;8.29;100.00
11936;BME280;6027;48.576;9.180;2023-04-01T18:57:04;95904.53;;;8.26;100.00
11936;BME280;6027;48.576;9.180;2023-04-01T18:59:46;95900.91;;;8.06;100.00
11936;BME280;6027;48.576;9.180;2023-04-01T19:02:30;95910.13;;;7.95;100.00
11936;BME280;6027;48.576;9.180;2023-04-01T19:05:19;95906.25;;;7.91;100.00
11936;BME280;6027;48.576;9.180;2023-04-01T19:07:55;95904.38;;;7.85;100.00
11936;BME280;6027;48.576;9.180;2023-04-01T19:10:23;95901.69;;;7.79;100.00
11936;BME280;6027;48.576;9.180;2023-04-01T19:26:29;95916.59;;;7.72;100.00
11936;BME280;6027;48.576;9.180;2023-04-01T19:29:06;95911.75;;;7.54;100.00
11936;BME280;6027;48.576;9.180;2023-04-01T19:31:52;95900.00;;;7.50;100.00
11936;BME280;6027;48.576;9.180;2023-04-01T19:42:48;95924.16;;;7.39;100.00
11936;BME280;6027;48.576;9.180;2023-04-01T19:49:02;95917.63;;;7.35;100.00
11936;BME280;6027;48.576;9.180;2023-04-01T20:00:15;95927.34;;;7.34;100.00
11936;BME280;6027;48.576;9.180;2023-04-01T20:03:04;95920.47;;;7.18;100.00
11936;BME280;6027;48.576;9.180;2023-04-01T20:05:43;95924.38;;;7.22;100.00
11936;BME280;6027;48.576;9.180;2023-04-01T20:11:11;95940.75;;;7.03;100.00
11936;BME280;6027;48.576;9.180;2023-04-01T20:16:49;95953.16;;;6.94;100.00
11936;BME280;6027;48.576;9.180;2023-04-01T20:19:38;95960.16;;;6.87;100.00
11936;BME280;6027;48.576;9.180;2023-04-01T20:24:52;95965.22;;;6.74;100.00
11936;BME280;6027;48.576;9.180;2023-04-01T20:27:21;95960.34;;;6.71;100.00
11936;BME280;6027;48.576;9.180;2023-04-01T20:32:43;95945.47;;;6.78;100.00
11936;BME280;6027;48.576;9.180;2023-04-01T20:40:37;95957.06;;;7.13;100.00
11936;BME280;6027;48.576;9.180;2023-04-01T20:51:10;95971.59;;;7.24;100.00
11936;BME280;6027;48.576;9.180;2023-04-01T20:58:51;95979.72;;;7.44;100.00
11936;BME280;6027;48.576;9.180;2023-04-01T21:04:23;95975.47;;;7.43;100.00
11936;BME280;6027;48.576;9.180;2023-04-01T21:07:14;95972.28;;;7.33;100.00
11936;BME280;6027;48.576;9.180;2023-04-01T21:09:53;95974.47;;;7.14;100.00
11936;BME280;6027;48.576;9.180;2023-04-01T21:12:46;95985.94;;;6.92;100.00
11936;BME280;6027;48.576;9.180;2023-04-01T21:15:29;95990.00;;;6.80;100.00
11936;BME280;6027;48.576;9.180;2023-04-01T21:28:34;96005.13;;;6.63;100.00
11936;BME280;6027;48.576;9.180;2023-04-01T21:36:58;96015.59;;;6.71;100.00
11936;BME280;6027;48.576;9.180;2023-04-01T21:42:05;96005.59;;;6.81;100.00
11936;BME280;6027;48.576;9.180;2023-04-01T22:10:33;96032.03;;;6.88;100.00
11936;BME280;6027;48.576;9.180;2023-04-01T22:13:10;96034.31;;;6.91;100.00
11936;BME280;6027;48.576;9.180;2023-04-01T22:15:54;96030.47;;;6.93;100.00
11936;BME280;6027;48.576;9.180;2023-04-01T22:18:45;96037.75;;;6.91;100.00
11936;BME280;6027;48.576;9.180;2023-04-01T22:29:28;96052.03;;;6.74;100.00
11936;BME280;6027;48.576;9.180;2023-04-01T22:31:49;96049.59;;;6.73;100.00
11936;BME280;6027;48.576;9.180;2023-04-01T22:34:27;96050.03;;;6.76;100.00
11936;BME280;6027;48.576;9.180;2023-04-01T22:39:38;96048.22;;;6.77;100.00
11936;BME280;6027;48.576;9.180;2023-04-01T22:45:10;96059.66;;;6.69;100.00
11936;BME280;6027;48.576;9.180;2023-04-01T22:50:23;96053.59;;;6.69;100.00
11936;BME280;6027;48.576;9.180;2023-04-01T22:55:46;96063.94;;;6.70;100.00
11936;BME280;6027;48.576;9.180;2023-04-01T22:58:17;96060.00;;;6.66;100.00
11936;BME280;6027;48.576;9.180;2023-04-01T23:00:49;96054.63;;;6.59;100.00
11936;BME280;6027;48.576;9.180;2023-04-01T23:03:21;96062.16;;;6.63;100.00
11936;BME280;6027;48.576;9.180;2023-04-01T23:05:53;96057.44;;;6.58;100.00
11936;BME280;6027;48.576;9.180;2023-04-01T23:11:06;96056.44;;;6.59;100.00
11936;BME280;6027;48.576;9.180;2023-04-01T23:13:36;96063.81;;;6.64;100.00
11936;BME280;6027;48.576;9.180;2023-04-01T23:16:06;96066.97;;;6.59;100.00
11936;BME280;6027;48.576;9.180;2023-04-01T23:24:22;96081.59;;;6.76;100.00
11936;BME280;6027;48.576;9.180;2023-04-01T23:29:23;96087.13;;;6.67;100.00
11936;BME280;6027;48.576;9.180;2023-04-01T23:31:58;96088.66;;;6.61;100.00
11936;BME280;6027;48.576;9.180;2023-04-01T23:34:34;96092.28;;;6.60;100.00
11936;BME280;6027;48.576;9.180;2023-04-01T23:39:40;96092.38;;;6.67;100.00
11936;BME280;6027;48.576;9.180;2023-04-01T23:42:18;96096.06;;;6.57;100.00
11936;BME280;6027;48.576;9.180;2023-04-01T23:45:15;96098.59;;;6.51;100.00
11936;BME280;6027;48.576;9.180;2023-04-01T23:47:48;96102.44;;;6.40;100.00
11936;BME280;6027;48.576;9.180;2023-04-01T23:50:22;96090.94;;;6.41;100.00
11936;BME280;6027;48.576;9.180;2023-04-01T23:53:02;96098.94;;;6.48;100.00
11936;BME280;6027;48.576;9.180;2023-04-01T23:55:31;96093.72;;;6.40;100.00
